createdAt,value
2018-11-26T00:00:50.286Z,17.23
2018-11-26T00:03:18.535Z,18.10
2018-11-26T00:05:46.889Z,17.97
2018-11-26T00:08:15.124Z,15.23
2018-11-26T00:10:54.772Z,16.03
2018-11-26T00:13:23.068Z,17.63
2018-11-26T00:15:51.378Z,18.27
2018-11-26T00:18:19.591Z,15.47
2018-11-26T00:20:47.887Z,16.47
2018-11-26T00:23:16.154Z,19.27
2018-11-26T00:25:44.384Z,16.33
2018-11-26T00:28:12.706Z,18.53
2018-11-26T00:30:40.990Z,18.93
2018-11-26T00:33:09.251Z,18.60
2018-11-26T00:35:37.508Z,15.87
2018-11-26T00:38:05.823Z,19.67
2018-11-26T00:40:34.076Z,18.40
2018-11-26T00:43:02.360Z,18.93
2018-11-26T00:45:30.698Z,18.50
2018-11-26T00:47:58.951Z,18.67
2018-11-26T00:50:27.220Z,20.17
2018-11-26T00:52:55.460Z,19.60
2018-11-26T00:55:23.712Z,17.57
2018-11-26T00:57:52.115Z,21.77
2018-11-26T01:00:20.485Z,17.33
2018-11-26T01:02:48.724Z,16.80
2018-11-26T01:05:28.292Z,18.10
2018-11-26T01:07:57.385Z,19.37
2018-11-26T01:10:25.703Z,20.07
2018-11-26T01:12:53.967Z,19.47
2018-11-26T01:18:13.231Z,17.80
2018-11-26T01:20:41.447Z,18.67
2018-11-26T01:23:09.737Z,16.87
2018-11-26T01:25:37.967Z,17.70
2018-11-26T01:28:06.676Z,18.03
2018-11-26T01:30:35.363Z,19.63
2018-11-26T01:33:03.604Z,20.30
2018-11-26T01:35:31.929Z,20.00
2018-11-26T01:38:00.154Z,15.83
2018-11-26T01:40:33.836Z,16.50
2018-11-26T01:43:02.069Z,16.40
2018-11-26T01:45:30.339Z,19.23
2018-11-26T01:47:58.591Z,17.60
2018-11-26T01:50:26.824Z,15.53
2018-11-26T01:52:55.066Z,19.13
2018-11-26T01:55:23.447Z,16.17
2018-11-26T01:57:51.722Z,17.37
2018-11-26T02:00:24.317Z,19.30
2018-11-26T02:02:52.584Z,17.53
2018-11-26T02:05:20.863Z,18.53
2018-11-26T02:07:49.161Z,19.20
2018-11-26T02:10:18.539Z,18.20
2018-11-26T02:12:46.807Z,16.03
2018-11-26T02:15:47.112Z,19.47
2018-11-26T02:18:15.325Z,16.60
2018-11-26T02:20:43.599Z,17.07
2018-11-26T02:23:11.867Z,20.00
2018-11-26T02:25:40.124Z,18.03
2018-11-26T02:28:08.336Z,16.83
2018-11-26T02:30:36.633Z,19.37
2018-11-26T02:33:04.930Z,16.33
2018-11-26T02:35:33.176Z,17.43
2018-11-26T02:38:01.483Z,19.90
2018-11-26T02:40:30.949Z,17.10
2018-11-26T02:42:59.247Z,15.10
2018-11-26T02:45:28.747Z,17.63
2018-11-26T02:47:56.963Z,16.67
2018-11-26T02:50:25.189Z,17.10
2018-11-26T02:52:53.415Z,18.10
2018-11-26T02:55:21.718Z,18.97
2018-11-26T02:57:50.416Z,16.30
2018-11-26T03:00:18.638Z,16.30
2018-11-26T03:02:46.859Z,20.00
2018-11-26T03:05:23.615Z,20.30
2018-11-26T03:07:52.203Z,17.20
2018-11-26T03:10:20.449Z,17.50
2018-11-26T03:12:48.688Z,17.87
2018-11-26T03:15:16.952Z,15.03
2018-11-26T03:17:45.201Z,16.93
2018-11-26T03:20:13.458Z,17.90
2018-11-26T03:22:41.727Z,20.30
2018-11-26T03:25:10.988Z,19.67
2018-11-26T03:27:39.270Z,18.63
2018-11-26T03:30:12.942Z,19.20
2018-11-26T03:32:41.336Z,18.43
2018-11-26T03:35:10.326Z,17.63
2018-11-26T03:37:38.620Z,18.73
2018-11-26T03:40:09.984Z,18.83
2018-11-26T03:42:38.275Z,20.00
2018-11-26T03:45:10.190Z,17.53
2018-11-26T03:47:38.443Z,18.90
2018-11-26T03:50:06.965Z,18.90
2018-11-26T03:52:35.256Z,19.17
2018-11-26T03:55:03.723Z,19.03
2018-11-26T03:57:31.985Z,20.97
2018-11-26T04:00:00.245Z,18.27
2018-11-26T04:02:28.543Z,18.73
2018-11-26T04:04:56.871Z,22.43
2018-11-26T04:07:25.132Z,19.80
2018-11-26T04:09:53.398Z,21.07
2018-11-26T04:12:21.674Z,20.17
2018-11-26T04:14:50.156Z,21.07
2018-11-26T04:17:18.400Z,17.70
2018-11-26T04:19:46.653Z,19.63
2018-11-26T04:22:14.848Z,18.33
2018-11-26T04:24:43.211Z,19.73
2018-11-26T04:27:11.460Z,19.07
2018-11-26T04:29:39.699Z,24.33
2018-11-26T04:32:07.920Z,17.57
2018-11-26T04:34:36.203Z,19.13
2018-11-26T04:37:05.508Z,20.10
2018-11-26T04:39:33.715Z,19.90
2018-11-26T04:42:08.983Z,19.10
2018-11-26T04:44:37.335Z,18.90
2018-11-26T04:47:05.557Z,15.50
2018-11-26T04:49:33.802Z,17.87
2018-11-26T04:52:02.033Z,17.17
2018-11-26T04:54:30.297Z,17.43
2018-11-26T04:56:58.513Z,15.80
2018-11-26T04:59:27.017Z,19.43
2018-11-26T05:01:55.457Z,16.87
2018-11-26T05:04:23.938Z,18.73
2018-11-26T05:06:52.151Z,20.33
2018-11-26T05:09:20.400Z,17.47
2018-11-26T05:11:48.639Z,19.37
2018-11-26T05:14:16.897Z,17.33
2018-11-26T05:16:45.124Z,19.63
2018-11-26T05:19:13.468Z,17.10
2018-11-26T05:21:41.765Z,18.47
2018-11-26T05:24:10.083Z,17.50
2018-11-26T05:26:38.331Z,19.50
2018-11-26T05:29:06.707Z,16.50
2018-11-26T05:31:34.936Z,19.00
2018-11-26T05:34:03.212Z,17.60
2018-11-26T05:36:31.432Z,18.03
2018-11-26T05:38:59.734Z,18.90
2018-11-26T05:41:27.956Z,17.50
2018-11-26T05:43:56.188Z,18.93
2018-11-26T05:46:24.399Z,19.33
2018-11-26T05:48:52.643Z,17.90
2018-11-26T05:51:20.884Z,18.97
2018-11-26T05:53:49.172Z,16.30
2018-11-26T05:56:17.397Z,17.30
2018-11-26T05:58:45.649Z,17.43
2018-11-26T06:01:13.865Z,18.23
2018-11-26T06:03:42.291Z,17.40
2018-11-26T06:06:10.541Z,16.93
2018-11-26T06:08:38.801Z,18.77
2018-11-26T06:11:07.068Z,17.23
2018-11-26T06:13:35.363Z,21.03
2018-11-26T06:16:03.589Z,16.53
2018-11-26T06:18:31.829Z,21.77
2018-11-26T06:21:00.116Z,19.87
2018-11-26T06:23:28.379Z,18.47
2018-11-26T06:26:03.140Z,20.73
2018-11-26T06:28:31.403Z,17.07
2018-11-26T06:30:59.734Z,19.97
2018-11-26T06:33:27.973Z,23.87
2018-11-26T06:35:56.267Z,19.53
2018-11-26T06:38:24.762Z,20.67
2018-11-26T06:40:53.043Z,21.87
2018-11-26T06:43:21.293Z,22.23
2018-11-26T06:45:56.089Z,20.97
2018-11-26T06:48:24.347Z,20.17
2018-11-26T06:50:52.567Z,24.87
2018-11-26T06:53:20.812Z,25.53
2018-11-26T06:55:49.542Z,19.63
2018-11-26T06:58:18.400Z,22.00
2018-11-26T07:00:46.913Z,22.40
2018-11-26T07:03:15.655Z,22.63
2018-11-26T07:05:44.316Z,19.27
2018-11-26T07:08:13.394Z,18.27
2018-11-26T07:10:42.067Z,21.73
2018-11-26T07:13:11.504Z,23.00
2018-11-26T07:15:40.535Z,21.23
2018-11-26T07:18:09.471Z,22.53
2018-11-26T07:20:38.540Z,19.27
2018-11-26T07:23:07.534Z,21.30
2018-11-26T07:25:36.475Z,22.70
2018-11-26T07:28:07.402Z,23.57
2018-11-26T07:30:38.168Z,22.63
2018-11-26T07:33:06.772Z,19.87
2018-11-26T07:35:35.072Z,23.03
2018-11-26T07:38:03.316Z,22.97
2018-11-26T07:40:31.609Z,24.40
2018-11-26T07:43:04.645Z,22.77
2018-11-26T07:45:32.946Z,20.53
2018-11-26T07:48:01.432Z,25.60
2018-11-26T07:50:29.698Z,26.43
2018-11-26T07:52:57.973Z,25.47
2018-11-26T07:55:26.299Z,21.37
2018-11-26T07:57:54.572Z,27.40
2018-11-26T08:00:29.610Z,23.57
2018-11-26T08:02:59.631Z,26.50
2018-11-26T08:05:28.001Z,25.33
2018-11-26T08:07:56.296Z,24.50
2018-11-26T08:10:24.857Z,27.40
2018-11-26T08:12:54.314Z,29.13
2018-11-26T08:15:25.759Z,24.30
2018-11-26T08:17:54.226Z,29.77
2018-11-26T08:20:23.400Z,23.47
2018-11-26T08:22:51.808Z,25.10
2018-11-26T08:25:21.415Z,26.80
2018-11-26T08:27:50.064Z,30.80
2018-11-26T08:30:23.036Z,31.20
2018-11-26T08:32:53.412Z,28.87
2018-11-26T08:35:21.851Z,26.33
2018-11-26T08:37:55.545Z,25.70
2018-11-26T08:40:28.049Z,25.83
2018-11-26T08:43:15.477Z,24.47
2018-11-26T08:45:55.615Z,28.60
2018-11-26T08:48:26.273Z,27.67
2018-11-26T08:50:56.046Z,26.17
2018-11-26T08:53:24.454Z,27.50
2018-11-26T08:55:53.048Z,27.40
2018-11-26T08:58:21.660Z,28.73
2018-11-26T09:00:55.254Z,25.77
2018-11-26T09:03:28.172Z,31.70
2018-11-26T09:06:01.566Z,29.37
2018-11-26T09:08:31.661Z,33.00
2018-11-26T09:11:00.367Z,26.57
2018-11-26T09:13:28.733Z,31.87
2018-11-26T09:15:57.237Z,26.37
2018-11-26T09:18:25.492Z,27.80
2018-11-26T09:20:53.902Z,29.30
2018-11-26T09:23:28.606Z,27.10
2018-11-26T09:25:57.258Z,27.37
2018-11-26T09:28:25.603Z,25.57
2018-11-26T09:30:54.197Z,26.97
2018-11-26T09:33:22.591Z,31.10
2018-11-26T09:35:50.975Z,24.33
2018-11-26T10:01:54.083Z,24.13
2018-11-26T10:04:23.081Z,24.07
2018-11-26T10:06:51.352Z,22.20
2018-11-26T10:09:19.866Z,22.17
2018-11-26T10:11:48.690Z,20.50
2018-11-26T10:14:17.196Z,19.83
2018-11-26T10:16:45.442Z,22.57
2018-11-26T10:19:13.712Z,23.73
2018-11-26T10:21:42.569Z,23.40
2018-11-26T10:24:10.981Z,25.07
2018-11-26T10:26:40.605Z,27.77
2018-11-26T10:29:09.163Z,26.13
2018-11-26T10:31:37.552Z,23.93
2018-11-26T10:34:07.058Z,24.33
2018-11-26T10:36:35.532Z,22.17
2018-11-26T10:39:06.065Z,22.60
2018-11-26T10:41:34.443Z,21.27
2018-11-26T10:44:02.726Z,23.27
2018-11-26T10:46:31.231Z,21.47
2018-11-26T10:48:59.531Z,21.50
2018-11-26T10:51:28.542Z,19.77
2018-11-26T10:53:56.937Z,19.67
2018-11-26T10:56:25.486Z,19.53
2018-11-26T10:58:53.959Z,21.17
2018-11-26T11:01:27.484Z,19.73
2018-11-26T11:03:55.815Z,19.70
2018-11-26T11:06:24.688Z,23.33
2018-11-26T11:08:54.785Z,20.63
2018-11-26T11:11:23.525Z,22.63
2018-11-26T11:13:51.505Z,23.37
2018-11-26T11:16:19.978Z,34.30
2018-11-26T11:18:48.551Z,24.57
2018-11-26T11:21:16.827Z,20.23
2018-11-26T11:23:45.068Z,24.57
2018-11-26T11:26:14.099Z,24.67
2018-11-26T11:28:43.993Z,22.47
2018-11-26T11:31:12.258Z,21.87
2018-11-26T11:33:40.563Z,24.23
2018-11-26T11:36:08.871Z,24.57
2018-11-26T11:38:37.406Z,21.53
2018-11-26T11:41:06.189Z,23.00
2018-11-26T11:43:34.582Z,23.13
2018-11-26T11:46:02.906Z,21.83
2018-11-26T11:48:31.175Z,23.30
2018-11-26T11:50:59.616Z,21.60
2018-11-26T11:53:28.013Z,23.30
2018-11-26T11:55:56.709Z,24.00
2018-11-26T11:58:24.940Z,20.27
2018-11-26T12:00:53.193Z,21.63
2018-11-26T12:03:21.646Z,23.00
2018-11-26T12:05:49.956Z,29.47
2018-11-26T12:08:18.184Z,20.23
2018-11-26T12:10:46.463Z,22.63
2018-11-26T12:13:15.361Z,23.37
2018-11-26T12:15:47.187Z,23.73
2018-11-26T12:18:15.389Z,22.13
2018-11-26T12:20:43.646Z,23.13
2018-11-26T12:23:11.987Z,24.67
2018-11-26T12:25:40.312Z,23.57
2018-11-26T12:28:08.616Z,24.83
2018-11-26T12:30:39.605Z,21.93
2018-11-26T12:33:07.932Z,24.23
2018-11-26T12:35:36.195Z,25.13
2018-11-26T12:38:04.503Z,22.17
2018-11-26T12:40:32.733Z,23.87
2018-11-26T12:43:02.192Z,22.70
2018-11-26T12:45:31.903Z,23.50
2018-11-26T12:48:00.325Z,24.10
2018-11-26T12:50:28.926Z,24.50
2018-11-26T12:52:57.278Z,25.57
2018-11-26T12:55:25.821Z,24.87
2018-11-26T12:58:00.864Z,28.23
2018-11-26T13:00:29.582Z,27.43
2018-11-26T13:03:08.156Z,26.43
2018-11-26T13:05:37.142Z,22.27
2018-11-26T13:08:05.492Z,27.13
2018-11-26T13:10:33.730Z,27.43
2018-11-26T13:13:02.219Z,27.77
2018-11-26T13:15:30.501Z,26.63
2018-11-26T13:17:58.810Z,25.53
2018-11-26T13:20:28.499Z,26.03
2018-11-26T13:22:56.872Z,25.33
2018-11-26T13:25:29.256Z,27.77
2018-11-26T13:28:00.343Z,22.27
2018-11-26T13:30:32.893Z,25.50
2018-11-26T13:33:02.386Z,25.70
2018-11-26T13:35:30.832Z,24.50
2018-11-26T13:37:59.153Z,30.97
2018-11-26T13:40:27.446Z,26.03
2018-11-26T13:42:55.658Z,28.80
2018-11-26T13:45:30.714Z,29.73
2018-11-26T13:47:59.034Z,27.33
2018-11-26T13:50:29.862Z,27.87
2018-11-26T13:52:58.140Z,33.73
2018-11-26T13:55:26.687Z,32.83
2018-11-26T13:57:54.865Z,30.47
2018-11-26T14:00:23.169Z,26.67
2018-11-26T14:02:51.490Z,29.17
2018-11-26T14:05:19.989Z,31.13
2018-11-26T14:07:48.354Z,28.07
2018-11-26T14:10:22.866Z,28.40
2018-11-26T14:12:54.742Z,28.63
2018-11-26T14:15:23.000Z,28.27
2018-11-26T14:17:51.316Z,27.57
2018-11-26T14:20:19.581Z,28.67
2018-11-26T14:22:47.809Z,24.83
2018-11-26T14:25:16.999Z,30.03
2018-11-26T14:27:45.679Z,30.13
2018-11-26T14:30:15.936Z,26.27
2018-11-26T14:32:44.283Z,28.23
2018-11-26T14:35:12.517Z,29.23
2018-11-26T14:37:40.811Z,27.03
2018-11-26T14:40:15.072Z,31.30
2018-11-26T14:42:43.294Z,24.83
2018-11-26T14:45:13.209Z,30.57
2018-11-26T14:47:41.772Z,31.80
2018-11-26T14:50:13.023Z,31.07
2018-11-26T14:52:42.552Z,26.67
2018-11-26T14:55:13.957Z,30.70
2018-11-26T14:57:42.336Z,27.37
2018-11-26T15:00:16.070Z,27.67
2018-11-26T15:02:44.349Z,30.00
2018-11-26T15:05:12.938Z,29.47
2018-11-26T15:07:41.387Z,25.33
2018-11-26T15:10:12.073Z,27.03
2018-11-26T15:12:40.596Z,27.63
2018-11-26T15:15:11.059Z,25.50
2018-11-26T15:17:39.602Z,29.00
2018-11-26T15:20:12.986Z,31.47
2018-11-26T15:22:41.299Z,26.73
2018-11-26T15:25:11.213Z,31.87
2018-11-26T15:27:39.776Z,29.67
2018-11-26T15:30:12.242Z,28.50
2018-11-26T15:32:40.612Z,26.33
2018-11-26T15:35:11.544Z,27.00
2018-11-26T15:37:39.880Z,27.30
2018-11-26T15:40:09.327Z,28.53
2018-11-26T15:42:37.863Z,28.47
2018-11-26T15:45:13.461Z,27.90
2018-11-26T15:47:41.708Z,26.93
2018-11-26T15:50:10.112Z,31.73
2018-11-26T15:52:38.548Z,33.83
2018-11-26T15:55:08.706Z,30.40
2018-11-26T15:57:37.108Z,31.60
2018-11-26T16:00:09.385Z,29.47
2018-11-26T16:05:16.246Z,26.60
2018-11-26T16:07:44.839Z,35.53
2018-11-26T16:10:13.846Z,29.03
2018-11-26T16:12:42.908Z,30.47
2018-11-26T16:15:15.829Z,30.03
2018-11-26T16:17:44.114Z,31.03
2018-11-26T16:20:16.562Z,32.67
2018-11-26T16:22:44.904Z,35.20
2018-11-26T16:25:15.570Z,35.47
2018-11-26T16:27:43.892Z,35.27
2018-11-26T16:30:17.028Z,32.77
2018-11-26T16:32:49.658Z,33.20
2018-11-26T16:35:19.440Z,36.23
2018-11-26T16:37:47.717Z,32.17
2018-11-26T16:40:16.954Z,30.53
2018-11-26T16:42:45.189Z,38.70
2018-11-26T16:45:14.743Z,36.70
2018-11-26T16:47:43.544Z,38.50
2018-11-26T16:50:19.789Z,34.90
2018-11-26T16:52:48.226Z,32.50
2018-11-26T16:55:17.131Z,34.00
2018-11-26T16:57:46.130Z,37.97
2018-11-26T17:00:17.648Z,34.50
2018-11-26T17:02:47.029Z,40.97
2018-11-26T17:05:17.582Z,36.63
2018-11-26T17:07:45.885Z,33.17
2018-11-26T17:10:14.221Z,33.83
2018-11-26T17:12:42.531Z,41.70
2018-11-26T17:15:12.452Z,35.90
2018-11-26T17:17:40.797Z,34.43
2018-11-26T17:20:10.611Z,38.80
2018-11-26T17:22:38.916Z,34.60
2018-11-26T17:25:09.636Z,37.80
2018-11-26T17:27:39.044Z,49.50
2018-11-26T17:30:11.304Z,141.63
2018-11-26T17:32:39.581Z,37.93
2018-11-26T17:35:09.114Z,36.80
2018-11-26T17:37:42.634Z,41.07
2018-11-26T17:40:07.987Z,39.00
2018-11-26T17:42:36.373Z,43.13
2018-11-26T17:45:04.849Z,39.30
2018-11-26T17:47:33.177Z,42.33
2018-11-26T17:50:01.572Z,42.60
2018-11-26T17:52:29.923Z,38.07
2018-11-26T17:54:58.235Z,38.53
2018-11-26T17:57:26.551Z,39.83
2018-11-26T17:59:54.875Z,39.70
2018-11-26T18:02:23.210Z,41.83
2018-11-26T18:04:51.576Z,39.47
2018-11-26T18:07:19.906Z,41.97
2018-11-26T18:09:48.267Z,44.37
2018-11-26T18:12:16.563Z,47.60
2018-11-26T18:14:44.976Z,44.73
2018-11-26T18:17:13.475Z,39.33
2018-11-26T18:19:41.783Z,41.13
2018-11-26T18:22:10.074Z,44.77
2018-11-26T18:24:38.757Z,42.77
2018-11-26T18:27:09.110Z,46.10
2018-11-26T18:29:37.630Z,42.03
2018-11-26T18:32:06.193Z,50.60
2018-11-26T18:34:34.563Z,43.97
2018-11-26T18:37:03.010Z,43.57
2018-11-26T18:39:31.372Z,45.50
2018-11-26T18:41:59.687Z,44.17
2018-11-26T18:44:28.027Z,45.17
2018-11-26T18:46:56.286Z,45.60
2018-11-26T18:49:24.590Z,45.00
2018-11-26T18:51:52.838Z,41.37
2018-11-26T18:54:21.150Z,39.33
2018-11-26T18:56:49.442Z,42.43
2018-11-26T18:59:17.857Z,38.87
2018-11-26T19:01:46.074Z,43.70
2018-11-26T19:04:14.425Z,37.57
2018-11-26T19:06:42.646Z,44.53
2018-11-26T19:09:10.942Z,42.67
2018-11-26T19:11:39.193Z,50.63
2018-11-26T19:14:12.745Z,45.53
2018-11-26T19:16:43.596Z,41.93
2018-11-26T19:19:11.934Z,59.30
2018-11-26T19:21:40.223Z,54.50
2018-11-26T19:24:08.544Z,50.13
2018-11-26T19:26:36.810Z,47.07
2018-11-26T19:29:05.538Z,46.40
2018-11-26T19:31:33.896Z,40.13
2018-11-26T19:34:02.237Z,43.97
2018-11-26T19:36:30.482Z,48.80
2018-11-26T19:38:58.881Z,43.87
2018-11-26T19:41:27.583Z,47.83
2018-11-26T19:43:55.910Z,48.53
2018-11-26T19:46:24.343Z,45.77
2018-11-26T19:48:52.591Z,45.67
2018-11-26T19:51:20.821Z,41.80
2018-11-26T19:53:49.468Z,51.13
2018-11-26T19:56:17.849Z,44.07
2018-11-26T19:58:46.107Z,46.07
2018-11-26T20:01:14.391Z,46.37
2018-11-26T20:06:25.263Z,46.67
2018-11-26T20:09:00.549Z,49.83
2018-11-26T20:11:33.237Z,47.37
2018-11-26T20:13:59.436Z,52.13
2018-11-26T20:16:32.812Z,44.37
2018-11-26T20:19:01.103Z,49.40
2018-11-26T20:21:29.345Z,44.77
2018-11-26T20:23:57.725Z,43.27
2018-11-26T20:26:26.015Z,48.50
2018-11-26T20:28:56.896Z,57.17
2018-11-26T20:31:22.672Z,46.20
2018-11-26T20:33:50.918Z,46.33
2018-11-26T20:36:19.251Z,42.90
2018-11-26T20:38:47.608Z,43.63
2018-11-26T20:41:16.893Z,48.90
2018-11-26T20:43:45.189Z,45.60
2018-11-26T20:46:13.488Z,42.50
2018-11-26T20:48:41.846Z,40.77
2018-11-26T20:51:10.166Z,46.50
2018-11-26T20:53:39.480Z,45.40
2018-11-26T20:56:10.609Z,50.10
2018-11-26T20:58:38.895Z,51.97
2018-11-26T21:01:07.198Z,45.93
2018-11-26T21:03:35.570Z,43.70
2018-11-26T21:06:03.825Z,43.10
2018-11-26T21:08:32.228Z,44.17
2018-11-26T21:11:00.618Z,46.73
2018-11-26T21:13:28.924Z,47.07
2018-11-26T21:15:57.251Z,42.83
2018-11-26T21:18:25.539Z,42.20
2018-11-26T21:20:53.838Z,44.43
2018-11-26T21:23:25.596Z,44.33
2018-11-26T21:25:54.745Z,44.47
2018-11-26T21:28:23.351Z,42.13
2018-11-26T21:30:52.298Z,45.10
2018-11-26T21:33:19.983Z,40.83
2018-11-26T21:35:48.213Z,43.33
2018-11-26T21:38:16.486Z,45.63
2018-11-26T21:43:19.419Z,64.30
2018-11-26T21:45:50.546Z,47.20
2018-11-26T21:48:18.922Z,52.53
2018-11-26T21:50:47.161Z,45.57
2018-11-26T21:53:15.415Z,54.47
2018-11-26T21:55:43.759Z,47.93
2018-11-26T21:58:12.089Z,48.07
2018-11-26T22:00:41.113Z,45.33
2018-11-26T22:03:13.399Z,49.33
2018-11-26T22:05:42.713Z,52.80
2018-11-26T22:08:11.425Z,47.00
2018-11-26T22:10:42.083Z,40.83
2018-11-26T22:13:11.850Z,48.43
2018-11-26T22:15:40.247Z,44.90
2018-11-26T22:18:08.848Z,49.47
2018-11-26T22:20:37.163Z,45.47
2018-11-26T22:23:06.066Z,43.10
2018-11-26T22:25:34.417Z,49.60
2018-11-26T22:30:42.669Z,43.00
2018-11-26T22:33:10.984Z,42.83
2018-11-26T22:35:39.270Z,50.93
2018-11-26T22:38:07.622Z,43.80
2018-11-26T22:40:35.942Z,43.50
2018-11-26T22:43:04.301Z,45.03
2018-11-26T22:45:33.554Z,43.93
2018-11-26T22:48:09.390Z,41.40
2018-11-26T22:50:40.732Z,45.27
2018-11-26T22:53:09.487Z,46.73
2018-11-26T22:55:37.804Z,51.23
2018-11-26T22:58:08.462Z,44.23
2018-11-26T23:00:43.527Z,43.60
2018-11-26T23:03:14.201Z,46.47
2018-11-26T23:05:42.720Z,44.42
2018-11-26T23:08:10.989Z,44.93
2018-11-26T23:10:39.259Z,44.80
2018-11-26T23:13:08.371Z,43.73
2018-11-26T23:15:36.725Z,43.80
2018-11-26T23:18:05.745Z,41.70
2018-11-26T23:20:34.073Z,44.00
2018-11-26T23:23:02.347Z,42.77
2018-11-26T23:25:30.617Z,43.03
2018-11-26T23:27:59.435Z,45.20
2018-11-26T23:30:28.814Z,46.00
2018-11-26T23:32:59.058Z,38.73
2018-11-26T23:35:27.398Z,50.10
2018-11-26T23:37:55.702Z,40.70
2018-11-26T23:40:24.056Z,39.07
2018-11-26T23:42:52.355Z,42.07
2018-11-26T23:45:22.899Z,46.73
2018-11-26T23:47:51.155Z,46.90
2018-11-26T23:50:19.483Z,47.40
2018-11-26T23:52:47.888Z,40.80
2018-11-26T23:55:20.247Z,42.93
2018-11-26T23:57:48.489Z,48.20
